Time;durP1;ratioP1;P1;durP2;ratioP2;P2;SDS_P1;SDS_P2;PMS_P1;PMS_P2;Temp;Humidity;BMP_temperature;BMP_pressure;BME280_temperature;BME280_humidity;BME280_pressure;Samples;Min_cycle;Max_cycle;Signal;HPM_P1;HPM_P2
2022/07/06 14:03:04;;;;;;;2.77;0.83;;;;;;;;;;5040706;28;81774;-44
2022/07/06 14:05:33;;;;;;;0.40;0.40;;;;;;;;;;5021328;28;81739;-42
2022/07/06 14:08:01;;;;;;;2.00;0.60;;;;;;;;;;5024725;28;81769;-42
2022/07/06 14:10:30;;;;;;;2.30;0.70;;;;;;;;;;5027461;28;82894;-42
2022/07/06 14:12:58;;;;;;;1.07;0.50;;;;;;;;;;5033119;27;82311;-44
2022/07/06 14:15:26;;;;;;;0.80;0.60;;;;;;;;;;5033678;28;82299;-42
2022/07/06 14:17:54;;;;;;;0.70;0.60;;;;;;;;;;5027587;27;81818;-44
2022/07/06 14:20:24;;;;;;;0.90;0.70;;;;;;;;;;5039908;27;83844;-42
2022/07/06 14:22:53;;;;;;;0.80;0.50;;;;;;;;;;5041062;27;82243;-42
2022/07/06 14:25:21;;;;;;;0.57;0.40;;;;;;;;;;5040506;27;82239;-43
2022/07/06 14:27:49;;;;;;;0.50;0.47;;;;;;;;;;5021869;28;81999;-42
2022/07/06 14:30:18;;;;;;;1.70;0.80;;;;;;;;;;5030489;27;82918;-43
2022/07/06 14:32:46;;;;;;;0.63;0.33;;;;;;;;;;5040648;27;82381;-42
2022/07/06 14:35:14;;;;;;;0.50;0.50;;;;;;;;;;5040652;27;81511;-43
2022/07/06 14:37:44;;;;;;;0.80;0.67;;;;;;;;;;5040152;28;82265;-42
2022/07/06 14:40:12;;;;;;;0.77;0.70;;;;;;;;;;5040607;27;84051;-43
2022/07/06 14:42:41;;;;;;;2.73;0.83;;;;;;;;;;5035727;27;82345;-43
2022/07/06 14:45:09;;;;;;;6.73;0.87;;;;;;;;;;5040267;28;81951;-43
2022/07/06 14:47:38;;;;;;;1.80;0.70;;;;;;;;;;5039759;27;81922;-43
2022/07/06 14:50:06;;;;;;;2.00;0.70;;;;;;;;;;5035067;27;82789;-43
2022/07/06 14:52:35;;;;;;;0.80;0.80;;;;;;;;;;5039956;27;82179;-43
2022/07/06 14:55:05;;;;;;;1.37;0.60;;;;;;;;;;5040690;27;81696;-43
2022/07/06 14:57:41;;;;;;;3.70;0.90;;;;;;;;;;5040826;27;81771;-43
2022/07/06 15:00:09;;;;;;;1.23;0.60;;;;;;;;;;5039602;27;83154;-43
2022/07/06 15:02:38;;;;;;;1.37;0.90;;;;;;;;;;5038852;28;83447;-43
2022/07/06 15:05:06;;;;;;;1.23;0.83;;;;;;;;;;5040051;27;81657;-43
2022/07/06 15:07:35;;;;;;;1.10;0.70;;;;;;;;;;5040391;27;81795;-43
2022/07/06 15:10:05;;;;;;;2.00;0.60;;;;;;;;;;5039654;27;81792;-43
2022/07/06 15:12:33;;;;;;;0.70;0.60;;;;;;;;;;5036741;27;82438;-43
2022/07/06 15:15:01;;;;;;;0.80;0.80;;;;;;;;;;5026582;28;82094;-42
2022/07/06 15:17:31;;;;;;;2.50;0.90;;;;;;;;;;5018002;28;81723;-42
2022/07/06 15:20:00;;;;;;;1.23;0.87;;;;;;;;;;5022895;28;83988;-43
2022/07/06 15:22:28;;;;;;;1.33;1.00;;;;;;;;;;4986534;28;83395;-42
2022/07/06 15:24:56;;;;;;;2.40;1.40;;;;;;;;;;4999726;28;81645;-43
2022/07/06 15:27:26;;;;;;;2.03;1.43;;;;;;;;;;5026669;28;81752;-43
2022/07/06 15:29:54;;;;;;;2.00;1.80;;;;;;;;;;5025979;28;83973;-42
2022/07/06 15:32:23;;;;;;;1.67;1.30;;;;;;;;;;5026094;28;83254;-42
2022/07/06 15:34:51;;;;;;;1.60;1.40;;;;;;;;;;5026239;28;81772;-42
2022/07/06 15:37:19;;;;;;;1.60;1.37;;;;;;;;;;5026500;28;81788;-42
2022/07/06 15:39:48;;;;;;;4.63;2.23;;;;;;;;;;5025767;28;83918;-43
2022/07/06 15:42:16;;;;;;;2.53;1.70;;;;;;;;;;5025764;28;83293;-43
2022/07/06 15:44:48;;;;;;;1.73;1.63;;;;;;;;;;5026222;28;82190;-44
2022/07/06 15:47:17;;;;;;;8.00;2.10;;;;;;;;;;5025749;28;81887;-43
2022/07/06 15:49:45;;;;;;;4.87;2.37;;;;;;;;;;5025509;28;82667;-43
2022/07/06 15:52:21;;;;;;;2.40;1.97;;;;;;;;;;5026209;28;82272;-43
2022/07/06 15:54:49;;;;;;;3.10;1.80;;;;;;;;;;5024583;28;81980;-43
2022/07/06 15:57:17;;;;;;;3.63;2.53;;;;;;;;;;5025512;28;81897;-43
2022/07/06 15:59:47;;;;;;;3.73;2.63;;;;;;;;;;5020207;28;83087;-42
2022/07/06 16:02:16;;;;;;;3.83;2.20;;;;;;;;;;4997756;28;82260;-43
2022/07/06 16:04:44;;;;;;;2.43;1.97;;;;;;;;;;4995428;28;81717;-42
2022/07/06 16:07:12;;;;;;;5.07;2.63;;;;;;;;;;5012886;28;81857;-43
2022/07/06 16:10:01;;;;;;;3.50;2.53;;;;;;;;;;5023650;28;81603;-42
2022/07/06 16:12:29;;;;;;;2.70;2.27;;;;;;;;;;5024721;28;83371;-42
2022/07/06 16:14:59;;;;;;;3.30;2.37;;;;;;;;;;5025855;28;81549;-42
2022/07/06 16:17:27;;;;;;;5.67;3.00;;;;;;;;;;5024054;28;81772;-42
2022/07/06 16:19:55;;;;;;;5.10;2.53;;;;;;;;;;5024301;28;81663;-43
2022/07/06 16:22:25;;;;;;;4.07;2.60;;;;;;;;;;5023984;28;82395;-42
2022/07/06 16:24:53;;;;;;;6.50;2.73;;;;;;;;;;5004217;28;82320;-42
2022/07/06 16:27:21;;;;;;;3.50;2.63;;;;;;;;;;5005325;28;81754;-42
2022/07/06 16:29:50;;;;;;;4.87;2.57;;;;;;;;;;5017082;28;83833;-42
2022/07/06 16:32:19;;;;;;;4.20;3.17;;;;;;;;;;5023034;28;83393;-42
2022/07/06 16:34:48;;;;;;;3.20;2.73;;;;;;;;;;5013274;28;81591;-42
2022/07/06 16:37:16;;;;;;;3.93;2.97;;;;;;;;;;5005405;28;81762;-43
2022/07/06 16:39:44;;;;;;;4.73;2.90;;;;;;;;;;5016501;28;83917;-42
2022/07/06 16:42:12;;;;;;;5.57;2.83;;;;;;;;;;5024321;28;81635;-42
2022/07/06 16:44:41;;;;;;;13.03;3.07;;;;;;;;;;5024696;28;81931;-43
2022/07/06 16:47:09;;;;;;;2.50;2.10;;;;;;;;;;5025239;28;81772;-42
2022/07/06 16:49:39;;;;;;;2.70;2.00;;;;;;;;;;5024651;28;81670;-43
2022/07/06 16:52:08;;;;;;;3.43;2.23;;;;;;;;;;5025485;28;82267;-43
2022/07/06 16:54:36;;;;;;;4.77;2.83;;;;;;;;;;5024767;28;82246;-43
2022/07/06 16:57:04;;;;;;;5.60;1.97;;;;;;;;;;5023224;28;82859;-43
2022/07/06 16:59:33;;;;;;;3.97;2.20;;;;;;;;;;5024725;28;82830;-42
2022/07/06 17:02:01;;;;;;;4.20;2.37;;;;;;;;;;5022378;28;82883;-43
2022/07/06 17:04:30;;;;;;;4.73;2.80;;;;;;;;;;5023173;28;81860;-43
2022/07/06 17:06:59;;;;;;;6.43;3.03;;;;;;;;;;5024495;28;81783;-44
2022/07/06 17:09:28;;;;;;;5.90;2.77;;;;;;;;;;5024144;28;82821;-43
2022/07/06 17:11:56;;;;;;;6.80;2.47;;;;;;;;;;5020063;28;83368;-44
2022/07/06 17:14:24;;;;;;;4.70;3.03;;;;;;;;;;5019056;28;82269;-43
2022/07/06 17:16:54;;;;;;;5.57;2.90;;;;;;;;;;5022747;28;81820;-43
2022/07/06 17:19:22;;;;;;;5.27;2.73;;;;;;;;;;5024384;28;82763;-43
2022/07/06 17:21:51;;;;;;;8.93;2.20;;;;;;;;;;5024624;28;83280;-44
2022/07/06 17:24:26;;;;;;;4.40;1.97;;;;;;;;;;5023717;28;81854;-43
2022/07/06 17:26:54;;;;;;;4.47;2.43;;;;;;;;;;5024767;28;81781;-43
2022/07/06 17:29:22;;;;;;;9.70;2.07;;;;;;;;;;5024764;28;82925;-44
2022/07/06 17:31:50;;;;;;;3.70;2.10;;;;;;;;;;5024966;28;82299;-43
2022/07/06 17:34:19;;;;;;;4.57;2.00;;;;;;;;;;5025148;28;82117;-43
2022/07/06 17:36:47;;;;;;;3.47;1.93;;;;;;;;;;5024456;28;81892;-43
2022/07/06 17:39:16;;;;;;;2.93;1.50;;;;;;;;;;5024649;28;83940;-43
2022/07/06 17:41:45;;;;;;;3.30;1.60;;;;;;;;;;5024412;28;82341;-43
2022/07/06 17:44:14;;;;;;;3.17;2.20;;;;;;;;;;5017378;28;82214;-43
2022/07/06 17:46:42;;;;;;;3.93;1.93;;;;;;;;;;4983758;28;81881;-43
2022/07/06 17:49:10;;;;;;;3.03;1.93;;;;;;;;;;4984754;28;82908;-43
2022/07/06 17:51:46;;;;;;;3.23;1.87;;;;;;;;;;4985392;28;82518;-44
2022/07/06 17:54:14;;;;;;;2.57;2.13;;;;;;;;;;5016435;28;82644;-43
2022/07/06 17:56:42;;;;;;;3.30;2.30;;;;;;;;;;5018461;28;81829;-43
2022/07/06 17:59:12;;;;;;;2.40;1.67;;;;;;;;;;5004444;28;81681;-44
2022/07/06 18:01:41;;;;;;;4.20;2.50;;;;;;;;;;5002956;28;82267;-43
2022/07/06 18:04:09;;;;;;;5.60;3.03;;;;;;;;;;5003832;28;81555;-43
2022/07/06 18:06:37;;;;;;;5.93;2.70;;;;;;;;;;5004386;28;81504;-43
2022/07/06 18:09:06;;;;;;;3.43;2.30;;;;;;;;;;5004304;28;83933;-43
2022/07/06 18:11:35;;;;;;;5.87;3.93;;;;;;;;;;5003749;28;83063;-43
2022/07/06 18:14:03;;;;;;;10.37;5.20;;;;;;;;;;5003815;28;82775;-43
2022/07/06 18:16:33;;;;;;;7.73;4.40;;;;;;;;;;5003386;28;81695;-43
2022/07/06 18:19:01;;;;;;;8.17;4.63;;;;;;;;;;5003493;28;82349;-43
2022/07/06 18:21:30;;;;;;;10.50;6.20;;;;;;;;;;5003045;28;84034;-43
2022/07/06 18:23:58;;;;;;;12.00;6.43;;;;;;;;;;5003142;28;82633;-43
2022/07/06 18:26:27;;;;;;;8.33;5.57;;;;;;;;;;5003330;28;81873;-43
2022/07/06 18:28:55;;;;;;;9.30;5.10;;;;;;;;;;5002871;28;82034;-43
2022/07/06 18:31:23;;;;;;;8.23;4.47;;;;;;;;;;5003263;28;84106;-43
2022/07/06 18:33:53;;;;;;;7.97;4.70;;;;;;;;;;5003388;28;83860;-43
2022/07/06 18:36:21;;;;;;;5.03;3.90;;;;;;;;;;5003261;28;81931;-43
2022/07/06 18:38:50;;;;;;;7.73;3.63;;;;;;;;;;5003633;28;81676;-43
2022/07/06 18:41:19;;;;;;;6.33;3.10;;;;;;;;;;5003467;28;82918;-43
2022/07/06 18:43:47;;;;;;;4.47;2.50;;;;;;;;;;4999558;28;83172;-41
2022/07/06 18:46:15;;;;;;;5.13;3.53;;;;;;;;;;5011047;28;82972;-42
2022/07/06 18:48:44;;;;;;;8.67;4.50;;;;;;;;;;5005813;28;83890;-42
2022/07/06 18:51:14;;;;;;;7.23;4.60;;;;;;;;;;5010107;28;84252;-42
2022/07/06 18:53:42;;;;;;;6.80;4.43;;;;;;;;;;5005299;28;83227;-42
2022/07/06 18:56:10;;;;;;;7.87;4.60;;;;;;;;;;5007789;28;81907;-42
2022/07/06 18:58:38;;;;;;;6.00;4.07;;;;;;;;;;5020234;28;81976;-42
2022/07/06 19:01:07;;;;;;;6.60;4.40;;;;;;;;;;5024765;28;81927;-42
2022/07/06 19:03:35;;;;;;;5.83;4.53;;;;;;;;;;5005500;28;83995;-42
2022/07/06 19:06:04;;;;;;;6.70;3.83;;;;;;;;;;5014714;28;82570;-42
2022/07/06 19:08:33;;;;;;;4.90;3.53;;;;;;;;;;5023525;28;83028;-42
2022/07/06 19:11:02;;;;;;;6.83;3.97;;;;;;;;;;5025445;28;85199;-42
2022/07/06 19:13:30;;;;;;;6.83;4.00;;;;;;;;;;5026115;28;83700;-42
2022/07/06 19:15:58;;;;;;;5.17;3.30;;;;;;;;;;5025710;28;82281;-42
2022/07/06 19:18:27;;;;;;;4.93;3.47;;;;;;;;;;5007647;28;82750;-42
2022/07/06 19:20:55;;;;;;;6.10;3.77;;;;;;;;;;5003003;28;83027;-42
2022/07/06 19:23:24;;;;;;;7.63;3.60;;;;;;;;;;5002657;28;82982;-42
2022/07/06 19:25:54;;;;;;;8.57;4.10;;;;;;;;;;5007092;28;82010;-42
2022/07/06 19:28:22;;;;;;;4.60;3.20;;;;;;;;;;5007699;28;82886;-42
2022/07/06 19:30:50;;;;;;;6.03;3.67;;;;;;;;;;5002495;28;83076;-42
2022/07/06 19:33:19;;;;;;;10.97;4.10;;;;;;;;;;5002407;28;84117;-42
2022/07/06 19:35:47;;;;;;;5.40;3.50;;;;;;;;;;5003827;28;83031;-42
2022/07/06 19:38:15;;;;;;;5.40;3.47;;;;;;;;;;5022625;28;83943;-42
2022/07/06 19:40:43;;;;;;;3.83;2.93;;;;;;;;;;5022566;28;83220;-42
2022/07/06 19:43:13;;;;;;;6.07;4.00;;;;;;;;;;5008369;28;83936;-42
2022/07/06 19:45:41;;;;;;;4.57;3.57;;;;;;;;;;5003370;28;82000;-42
2022/07/06 19:48:10;;;;;;;5.47;3.47;;;;;;;;;;5008845;28;84139;-42
2022/07/06 19:50:38;;;;;;;5.90;3.80;;;;;;;;;;5000358;28;83396;-42
2022/07/06 19:53:06;;;;;;;3.80;2.80;;;;;;;;;;5005203;28;84099;-43
2022/07/06 19:55:35;;;;;;;4.40;3.37;;;;;;;;;;5007945;28;81953;-42
2022/07/06 19:58:03;;;;;;;4.20;2.90;;;;;;;;;;5003959;28;82926;-42
2022/07/06 20:00:32;;;;;;;5.57;3.67;;;;;;;;;;5002187;28;84197;-42
2022/07/06 20:03:01;;;;;;;4.00;2.77;;;;;;;;;;5002531;28;83650;-42
2022/07/06 20:05:29;;;;;;;4.40;3.10;;;;;;;;;;5003218;28;83790;-43
2022/07/06 20:07:59;;;;;;;4.07;3.03;;;;;;;;;;5003759;28;84021;-43
2022/07/06 20:10:28;;;;;;;3.77;2.60;;;;;;;;;;5001147;28;84174;-42
2022/07/06 20:12:56;;;;;;;3.30;2.83;;;;;;;;;;5001593;28;82913;-42
2022/07/06 20:15:30;;;;;;;4.30;3.10;;;;;;;;;;5002312;28;82004;-43
2022/07/06 20:17:59;;;;;;;4.00;2.57;;;;;;;;;;5003706;28;82839;-43
2022/07/06 20:20:28;;;;;;;4.67;2.57;;;;;;;;;;5003266;28;82858;-42
2022/07/06 20:22:56;;;;;;;3.40;2.60;;;;;;;;;;5003604;28;82930;-42
2022/07/06 20:25:24;;;;;;;3.47;2.63;;;;;;;;;;5002050;28;83168;-42
2022/07/06 20:27:53;;;;;;;5.53;2.40;;;;;;;;;;5003590;28;83025;-42
2022/07/06 20:31:39;;;;;;;4.13;2.50;;;;;;;;;;5103362;27;81867;-45
2022/07/06 20:34:07;;;;;;;6.80;2.27;;;;;;;;;;5098381;27;82699;-45
2022/07/06 20:36:36;;;;;;;3.33;2.27;;;;;;;;;;5102377;27;81772;-45
2022/07/06 20:39:04;;;;;;;3.60;2.03;;;;;;;;;;5099994;27;84098;-42
2022/07/06 20:41:33;;;;;;;2.10;1.83;;;;;;;;;;5095080;27;83342;-42
2022/07/06 20:44:01;;;;;;;2.30;2.10;;;;;;;;;;5102273;27;81703;-42
2022/07/06 20:46:29;;;;;;;2.47;2.17;;;;;;;;;;5102381;27;81796;-43
2022/07/06 20:48:59;;;;;;;2.67;1.67;;;;;;;;;;5084926;27;83918;-42
2022/07/06 20:51:27;;;;;;;4.90;2.53;;;;;;;;;;5084778;27;82397;-42
2022/07/06 20:53:56;;;;;;;3.73;1.87;;;;;;;;;;5081868;27;82178;-43
2022/07/06 20:56:24;;;;;;;3.63;1.90;;;;;;;;;;5089244;27;81864;-43
2022/07/06 20:58:52;;;;;;;2.67;1.80;;;;;;;;;;5101391;27;82948;-42
2022/07/06 21:01:40;;;;;;;2.63;2.13;;;;;;;;;;5109800;27;82257;-42
2022/07/06 21:04:09;;;;;;;2.00;1.60;;;;;;;;;;5105509;27;81743;-43
2022/07/06 21:06:38;;;;;;;1.80;1.40;;;;;;;;;;5101088;27;81891;-43
2022/07/06 21:09:06;;;;;;;1.97;1.70;;;;;;;;;;5101478;27;82967;-43
2022/07/06 21:11:35;;;;;;;2.13;1.83;;;;;;;;;;5111197;27;82853;-42
2022/07/06 21:14:03;;;;;;;5.10;1.90;;;;;;;;;;5092258;27;81812;-42
2022/07/06 21:16:31;;;;;;;2.77;2.13;;;;;;;;;;5081240;27;81780;-42
2022/07/06 21:19:00;;;;;;;2.80;2.10;;;;;;;;;;5108865;27;82746;-42
2022/07/06 21:21:29;;;;;;;3.07;1.90;;;;;;;;;;5114778;27;83303;-43
2022/07/06 21:23:58;;;;;;;1.57;1.47;;;;;;;;;;5117607;27;82119;-42
2022/07/06 21:26:26;;;;;;;3.13;1.87;;;;;;;;;;5120450;27;81733;-43
2022/07/06 21:28:54;;;;;;;2.37;1.50;;;;;;;;;;5119953;27;82980;-42
2022/07/06 21:31:22;;;;;;;1.67;1.43;;;;;;;;;;5119936;27;82375;-42
2022/07/06 21:33:51;;;;;;;2.67;1.70;;;;;;;;;;5106863;27;82175;-43
2022/07/06 21:36:19;;;;;;;2.80;1.47;;;;;;;;;;5101869;27;81730;-43
2022/07/06 21:38:49;;;;;;;2.27;1.53;;;;;;;;;;5081224;27;84584;-43
2022/07/06 21:41:17;;;;;;;3.77;1.80;;;;;;;;;;5095131;27;81622;-42
2022/07/06 21:43:45;;;;;;;2.33;1.27;;;;;;;;;;5101894;27;81841;-43
2022/07/06 21:46:14;;;;;;;2.10;1.27;;;;;;;;;;5076583;27;81720;-42
2022/07/06 21:48:43;;;;;;;1.90;1.63;;;;;;;;;;5090944;27;82846;-43
2022/07/06 21:51:11;;;;;;;1.53;1.43;;;;;;;;;;5089368;27;82426;-43
2022/07/06 21:53:40;;;;;;;3.03;1.70;;;;;;;;;;5087483;27;81794;-43
2022/07/06 21:56:09;;;;;;;2.27;1.57;;;;;;;;;;5105244;27;81930;-43
2022/07/06 21:58:39;;;;;;;1.97;1.40;;;;;;;;;;5106288;27;83012;-43
2022/07/06 22:01:10;;;;;;;2.13;1.10;;;;;;;;;;5105773;27;82128;-43
2022/07/06 22:03:39;;;;;;;2.87;1.30;;;;;;;;;;5077622;27;81632;-43
2022/07/06 22:06:08;;;;;;;2.73;1.17;;;;;;;;;;5096390;27;81802;-43
2022/07/06 22:08:36;;;;;;;1.80;1.20;;;;;;;;;;5102827;27;83912;-42
2022/07/06 22:11:06;;;;;;;1.57;1.10;;;;;;;;;;5088406;27;83431;-43
2022/07/06 22:13:42;;;;;;;1.53;1.10;;;;;;;;;;5104847;27;82748;-42
2022/07/06 22:16:12;;;;;;;1.93;1.37;;;;;;;;;;5106397;27;81779;-43
2022/07/06 22:18:41;;;;;;;1.30;1.20;;;;;;;;;;5100104;27;84010;-42
2022/07/06 22:21:09;;;;;;;2.83;1.40;;;;;;;;;;5104178;27;83428;-42
2022/07/06 22:23:38;;;;;;;2.23;1.13;;;;;;;;;;5097486;27;81867;-42
2022/07/06 22:26:09;;;;;;;1.30;1.10;;;;;;;;;;5098370;27;81685;-43
2022/07/06 22:28:39;;;;;;;1.63;1.30;;;;;;;;;;5096896;27;84012;-43
2022/07/06 22:31:08;;;;;;;2.13;1.20;;;;;;;;;;5087498;27;82491;-43
2022/07/06 22:33:37;;;;;;;1.17;1.07;;;;;;;;;;5086761;27;81689;-43
2022/07/06 22:36:06;;;;;;;0.97;0.97;;;;;;;;;;5092165;27;83312;-43
2022/07/06 22:38:34;;;;;;;3.23;1.33;;;;;;;;;;5091297;27;83956;-42
2022/07/06 22:41:03;;;;;;;1.73;1.10;;;;;;;;;;5087096;27;83371;-42
2022/07/06 22:43:32;;;;;;;5.00;1.50;;;;;;;;;;5095102;27;81673;-43
2022/07/06 22:46:02;;;;;;;1.00;0.90;;;;;;;;;;5094724;27;81869;-42
2022/07/06 22:48:31;;;;;;;2.73;0.80;;;;;;;;;;5086952;27;82767;-43
2022/07/06 22:51:00;;;;;;;1.20;1.10;;;;;;;;;;5087749;27;83337;-43
2022/07/06 22:53:28;;;;;;;1.20;1.00;;;;;;;;;;5088282;27;81929;-42
2022/07/06 22:55:57;;;;;;;1.20;1.00;;;;;;;;;;5086161;27;81862;-42
2022/07/06 22:58:32;;;;;;;1.47;0.97;;;;;;;;;;5091484;27;82947;-42
2022/07/06 23:01:00;;;;;;;1.23;0.93;;;;;;;;;;5094477;27;82416;-42
2022/07/06 23:03:30;;;;;;;2.30;0.87;;;;;;;;;;5087081;27;82257;-42
2022/07/06 23:06:00;;;;;;;3.10;1.13;;;;;;;;;;5086793;27;81915;-43
2022/07/06 23:08:29;;;;;;;1.90;1.10;;;;;;;;;;5086888;27;84092;-43
2022/07/06 23:10:57;;;;;;;1.43;1.10;;;;;;;;;;5086789;27;83335;-43
2022/07/06 23:13:26;;;;;;;1.60;1.07;;;;;;;;;;5087219;27;82290;-43
2022/07/06 23:15:55;;;;;;;3.77;1.20;;;;;;;;;;5104782;27;81756;-42
2022/07/06 23:18:24;;;;;;;0.90;0.90;;;;;;;;;;5106712;27;82705;-42
2022/07/06 23:20:54;;;;;;;0.70;0.70;;;;;;;;;;5106885;27;81906;-42
2022/07/06 23:23:22;;;;;;;0.87;0.77;;;;;;;;;;5087655;27;82186;-43
2022/07/06 23:25:51;;;;;;;1.33;0.97;;;;;;;;;;5086354;27;81642;-43
2022/07/06 23:28:20;;;;;;;0.63;0.63;;;;;;;;;;5086052;27;81626;-43
2022/07/06 23:30:48;;;;;;;0.73;0.67;;;;;;;;;;5102977;27;82905;-43
2022/07/06 23:33:17;;;;;;;2.90;1.00;;;;;;;;;;5088889;27;81502;-43
2022/07/06 23:35:45;;;;;;;2.03;1.47;;;;;;;;;;5086235;27;81625;-43
2022/07/06 23:38:15;;;;;;;3.90;1.10;;;;;;;;;;5086370;27;82953;-42
2022/07/06 23:40:44;;;;;;;0.73;0.70;;;;;;;;;;5086341;27;84430;-43
2022/07/06 23:43:12;;;;;;;3.87;1.03;;;;;;;;;;5100404;27;81525;-43
2022/07/06 23:45:41;;;;;;;2.00;0.87;;;;;;;;;;5089582;27;81838;-43
2022/07/06 23:48:09;;;;;;;2.97;1.00;;;;;;;;;;5096115;27;83916;-43
2022/07/06 23:50:38;;;;;;;1.40;1.00;;;;;;;;;;5092143;27;83594;-42
2022/07/06 23:53:06;;;;;;;0.70;0.70;;;;;;;;;;5099251;27;81736;-43
2022/07/06 23:55:36;;;;;;;0.73;0.73;;;;;;;;;;5091072;27;81739;-42
2022/07/06 23:58:05;;;;;;;1.10;0.80;;;;;;;;;;5095615;27;82944;-43
